Time;durP1;ratioP1;P1;durP2;ratioP2;P2;SDS_P1;SDS_P2;PMS_P1;PMS_P2;Temp;Humidity;BMP_temperature;BMP_pressure;BME280_temperature;BME280_humidity;BME280_pressure;Samples;Min_cycle;Max_cycle;Signal;HPM_P1;HPM_P2
2022/12/09 00:00:49;;;;;;;36.85;23.02;;;;;;;;;;7345840;19;21012;-79
2022/12/09 00:03:15;;;;;;;37.30;22.55;;;;;;;;;;7351708;19;20589;-78
2022/12/09 00:05:40;;;;;;;37.20;22.13;;;;;;;;;;7361338;19;20496;-79
2022/12/09 00:08:05;;;;;;;34.17;20.83;;;;;;;;;;7357340;19;20834;-80
2022/12/09 00:10:30;;;;;;;38.25;21.42;;;;;;;;;;7353034;19;19999;-80
2022/12/09 00:12:55;;;;;;;37.20;22.38;;;;;;;;;;7358213;19;20049;-79
2022/12/09 00:15:22;;;;;;;39.33;23.23;;;;;;;;;;7349835;19;20805;-79
2022/12/09 00:17:47;;;;;;;38.03;24.02;;;;;;;;;;7360772;19;20368;-79
2022/12/09 00:20:12;;;;;;;41.70;24.15;;;;;;;;;;7357613;19;20001;-79
2022/12/09 00:22:38;;;;;;;40.72;24.13;;;;;;;;;;7358121;19;20007;-81
2022/12/09 00:25:03;;;;;;;45.50;27.50;;;;;;;;;;7350517;19;20472;-79
2022/12/09 00:27:28;;;;;;;45.88;28.70;;;;;;;;;;7360730;19;20121;-82
2022/12/09 00:29:53;;;;;;;47.08;28.20;;;;;;;;;;7356358;19;20025;-82
2022/12/09 00:32:19;;;;;;;52.30;29.75;;;;;;;;;;7355234;19;20540;-80
2022/12/09 00:34:44;;;;;;;46.35;27.42;;;;;;;;;;7367930;19;20089;-80
2022/12/09 00:37:09;;;;;;;43.33;25.92;;;;;;;;;;7361144;19;20010;-81
2022/12/09 00:39:34;;;;;;;44.78;28.15;;;;;;;;;;7365811;19;20022;-80
2022/12/09 00:42:01;;;;;;;48.13;30.90;;;;;;;;;;7367598;19;20015;-81
2022/12/09 00:44:26;;;;;;;49.38;29.67;;;;;;;;;;7372333;19;20035;-81
2022/12/09 00:46:52;;;;;;;46.42;27.23;;;;;;;;;;7338945;19;20022;-81
2022/12/09 00:49:17;;;;;;;47.70;27.10;;;;;;;;;;7364316;19;20008;-79
2022/12/09 00:51:42;;;;;;;47.05;27.92;;;;;;;;;;7366456;19;20003;-81
2022/12/09 00:54:07;;;;;;;54.00;30.52;;;;;;;;;;7371124;19;20002;-81
2022/12/09 00:56:32;;;;;;;52.70;30.77;;;;;;;;;;7367651;19;20011;-80
2022/12/09 00:58:57;;;;;;;46.00;28.48;;;;;;;;;;7375269;19;19994;-79
2022/12/09 01:01:23;;;;;;;42.33;27.00;;;;;;;;;;7358738;19;20006;-79
2022/12/09 01:03:48;;;;;;;47.13;27.35;;;;;;;;;;7374703;19;20014;-79
2022/12/09 01:06:16;;;;;;;45.08;27.92;;;;;;;;;;7367748;19;20548;-80
2022/12/09 01:08:41;;;;;;;51.08;29.48;;;;;;;;;;7372594;19;20006;-78
2022/12/09 01:11:26;;;;;;;46.85;27.45;;;;;;;;;;7369755;19;20793;-81
2022/12/09 01:13:52;;;;;;;41.97;26.23;;;;;;;;;;7358169;19;20082;-80
2022/12/09 01:16:24;;;;;;;44.90;27.08;;;;;;;;;;7357243;19;20086;-78
2022/12/09 01:18:50;;;;;;;42.58;25.63;;;;;;;;;;7367864;19;20003;-79
2022/12/09 01:21:15;;;;;;;42.33;25.52;;;;;;;;;;7364255;19;20677;-80
2022/12/09 01:23:41;;;;;;;47.83;28.98;;;;;;;;;;7367794;19;20002;-81
2022/12/09 01:26:06;;;;;;;47.60;28.42;;;;;;;;;;7361370;19;20014;-80
2022/12/09 01:28:33;;;;;;;43.58;26.92;;;;;;;;;;7365365;19;20026;-79
2022/12/09 01:31:03;;;;;;;47.42;29.20;;;;;;;;;;7365370;19;20025;-80
2022/12/09 01:33:29;;;;;;;48.40;28.92;;;;;;;;;;7368906;19;21200;-81
2022/12/09 01:35:54;;;;;;;49.30;29.10;;;;;;;;;;7370442;19;20062;-81
2022/12/09 01:38:19;;;;;;;47.55;27.38;;;;;;;;;;7364195;19;20152;-80
2022/12/09 01:40:45;;;;;;;44.00;26.92;;;;;;;;;;7350531;19;20018;-81
2022/12/09 01:43:16;;;;;;;47.85;28.30;;;;;;;;;;7363826;19;20003;-81
2022/12/09 01:45:42;;;;;;;44.95;28.33;;;;;;;;;;7359697;19;20038;-81
2022/12/09 01:48:12;;;;;;;44.33;26.25;;;;;;;;;;7368342;19;20439;-79
2022/12/09 01:50:39;;;;;;;46.08;26.20;;;;;;;;;;7360727;19;20998;-80
2022/12/09 01:53:05;;;;;;;43.55;25.80;;;;;;;;;;7369795;19;20011;-80
2022/12/09 01:55:30;;;;;;;44.35;26.98;;;;;;;;;;7364148;19;20002;-79
2022/12/09 01:57:56;;;;;;;41.88;25.75;;;;;;;;;;7361977;19;20014;-80
2022/12/09 02:00:21;;;;;;;43.80;25.05;;;;;;;;;;7338560;19;19998;-78
2022/12/09 02:02:47;;;;;;;43.88;25.80;;;;;;;;;;7344858;19;20014;-81
2022/12/09 02:05:12;;;;;;;40.90;25.42;;;;;;;;;;7366027;19;20772;-80
2022/12/09 02:07:38;;;;;;;45.70;25.63;;;;;;;;;;7361878;19;20006;-80
2022/12/09 02:10:06;;;;;;;42.63;25.55;;;;;;;;;;7363740;19;20011;-79
2022/12/09 02:12:36;;;;;;;45.25;26.40;;;;;;;;;;7357140;19;19994;-81
2022/12/09 02:15:07;;;;;;;48.05;26.83;;;;;;;;;;7352172;19;20535;-81
2022/12/09 02:17:39;;;;;;;45.08;26.63;;;;;;;;;;7355376;19;20595;-79
2022/12/09 02:20:07;;;;;;;50.88;28.73;;;;;;;;;;7366216;19;20089;-80
2022/12/09 02:22:53;;;;;;;48.90;28.08;;;;;;;;;;7365861;19;20109;-80
2022/12/09 02:25:26;;;;;;;51.20;28.17;;;;;;;;;;7362910;19;20873;-80
2022/12/09 02:27:57;;;;;;;52.70;28.88;;;;;;;;;;7364102;19;20104;-80
2022/12/09 02:30:26;;;;;;;54.08;28.52;;;;;;;;;;7351604;19;20014;-80
2022/12/09 02:32:55;;;;;;;50.45;29.40;;;;;;;;;;7366305;19;20014;-80
2022/12/09 02:35:30;;;;;;;47.08;28.70;;;;;;;;;;7363169;19;20018;-80
2022/12/09 02:38:14;;;;;;;47.33;27.30;;;;;;;;;;7366403;19;20765;-80
2022/12/09 02:40:47;;;;;;;41.35;25.75;;;;;;;;;;7361991;19;20622;-80
2022/12/09 02:43:12;;;;;;;40.17;25.33;;;;;;;;;;7365516;19;20006;-81
2022/12/09 02:45:38;;;;;;;37.85;23.85;;;;;;;;;;7353989;19;20571;-81
2022/12/09 02:48:04;;;;;;;41.40;25.92;;;;;;;;;;7368985;19;20013;-80
2022/12/09 02:50:33;;;;;;;48.60;28.83;;;;;;;;;;7360033;19;20041;-80
2022/12/09 02:52:59;;;;;;;57.08;32.03;;;;;;;;;;7359128;19;19998;-80
2022/12/09 02:55:26;;;;;;;68.97;33.95;;;;;;;;;;7363295;19;20018;-80
2022/12/09 02:57:52;;;;;;;66.13;35.45;;;;;;;;;;7363914;19;20036;-80
2022/12/09 03:00:18;;;;;;;58.00;32.70;;;;;;;;;;7291562;19;20018;-82
2022/12/09 03:02:46;;;;;;;58.35;33.53;;;;;;;;;;7255998;19;20014;-80
2022/12/09 03:05:17;;;;;;;55.60;32.22;;;;;;;;;;7255211;19;20773;-82
2022/12/09 03:07:45;;;;;;;57.55;32.70;;;;;;;;;;7254727;19;20530;-81
2022/12/09 03:10:36;;;;;;;52.15;30.35;;;;;;;;;;7257219;19;20025;-81
2022/12/09 03:13:05;;;;;;;56.33;29.67;;;;;;;;;;7251098;19;20736;-79
2022/12/09 03:15:32;;;;;;;39.80;25.17;;;;;;;;;;7252513;19;20003;-81
2022/12/09 03:18:00;;;;;;;38.63;24.45;;;;;;;;;;7249354;19;20015;-81
2022/12/09 03:20:27;;;;;;;40.25;23.90;;;;;;;;;;7241309;19;20009;-81
2022/12/09 03:22:56;;;;;;;41.67;23.98;;;;;;;;;;7249663;19;20041;-81
2022/12/09 03:25:24;;;;;;;43.67;26.27;;;;;;;;;;7238315;19;21104;-81
2022/12/09 03:27:55;;;;;;;40.65;25.30;;;;;;;;;;7245690;19;20437;-81
2022/12/09 03:30:20;;;;;;;44.85;26.15;;;;;;;;;;7252821;19;20638;-82
2022/12/09 03:32:45;;;;;;;42.95;25.88;;;;;;;;;;7250589;19;20098;-81
2022/12/09 03:35:14;;;;;;;47.83;28.38;;;;;;;;;;7235592;19;20009;-80
2022/12/09 03:37:41;;;;;;;46.67;27.50;;;;;;;;;;7246376;19;20015;-80
2022/12/09 03:40:09;;;;;;;48.47;27.92;;;;;;;;;;7248429;19;20020;-81
2022/12/09 03:42:40;;;;;;;48.85;28.80;;;;;;;;;;7246331;19;20002;-81
2022/12/09 03:45:08;;;;;;;45.17;27.27;;;;;;;;;;7246576;19;20103;-80
2022/12/09 03:47:33;;;;;;;47.33;26.75;;;;;;;;;;7250097;19;20411;-81
2022/12/09 03:49:58;;;;;;;44.20;26.17;;;;;;;;;;7245718;19;20718;-81
2022/12/09 03:52:25;;;;;;;45.95;26.23;;;;;;;;;;7245635;19;20043;-81
2022/12/09 03:54:57;;;;;;;43.50;25.88;;;;;;;;;;7251590;19;20961;-80
2022/12/09 03:57:22;;;;;;;42.60;24.83;;;;;;;;;;7250374;19;20793;-80
2022/12/09 03:59:53;;;;;;;43.35;24.77;;;;;;;;;;7286208;19;20014;-80
2022/12/09 04:02:19;;;;;;;47.10;26.50;;;;;;;;;;7322529;19;20019;-78
2022/12/09 04:04:44;;;;;;;42.83;25.23;;;;;;;;;;7346441;19;20039;-79
2022/12/09 04:07:09;;;;;;;39.58;23.73;;;;;;;;;;7361549;19;20527;-78
2022/12/09 04:09:34;;;;;;;42.38;25.88;;;;;;;;;;7362855;19;20069;-78
2022/12/09 04:11:59;;;;;;;41.80;24.10;;;;;;;;;;7348152;19;20031;-79
2022/12/09 04:14:25;;;;;;;38.90;24.48;;;;;;;;;;7357204;19;20380;-80
2022/12/09 04:16:50;;;;;;;40.47;24.80;;;;;;;;;;7361345;19;20018;-80
2022/12/09 04:19:15;;;;;;;45.83;27.30;;;;;;;;;;7364825;19;20434;-80
2022/12/09 04:21:41;;;;;;;47.55;29.08;;;;;;;;;;7366099;19;20027;-79
2022/12/09 04:24:06;;;;;;;48.60;27.58;;;;;;;;;;7369114;19;20014;-83
2022/12/09 04:26:32;;;;;;;46.13;26.77;;;;;;;;;;7352577;19;20010;-82
2022/12/09 04:28:57;;;;;;;44.30;26.83;;;;;;;;;;7360584;19;20470;-80
2022/12/09 04:31:22;;;;;;;41.97;26.13;;;;;;;;;;7335672;19;20127;-80
2022/12/09 04:33:47;;;;;;;43.17;24.35;;;;;;;;;;7360467;19;20475;-81
2022/12/09 04:36:14;;;;;;;40.70;23.85;;;;;;;;;;7360118;19;20102;-83
2022/12/09 04:38:41;;;;;;;42.03;24.95;;;;;;;;;;7358774;19;20005;-81
2022/12/09 04:41:06;;;;;;;41.08;24.15;;;;;;;;;;7359531;19;20042;-83
2022/12/09 04:43:31;;;;;;;39.17;24.63;;;;;;;;;;7359668;19;20555;-83
2022/12/09 04:46:01;;;;;;;41.83;25.33;;;;;;;;;;7353821;19;19994;-80
2022/12/09 04:48:27;;;;;;;43.17;25.63;;;;;;;;;;7364202;19;20006;-80
2022/12/09 04:50:52;;;;;;;40.63;24.77;;;;;;;;;;7365311;19;20042;-81
2022/12/09 04:53:17;;;;;;;38.00;24.67;;;;;;;;;;7364224;19;20611;-80
2022/12/09 04:55:42;;;;;;;41.58;23.63;;;;;;;;;;7345925;19;20007;-83
2022/12/09 04:58:07;;;;;;;40.78;26.17;;;;;;;;;;7361048;19;20014;-81
2022/12/09 05:00:33;;;;;;;40.75;25.95;;;;;;;;;;7346698;19;20006;-82
2022/12/09 05:02:58;;;;;;;41.63;25.45;;;;;;;;;;7356311;19;20018;-80
2022/12/09 05:05:23;;;;;;;44.25;28.27;;;;;;;;;;7366889;19;20646;-80
2022/12/09 05:07:48;;;;;;;41.72;26.63;;;;;;;;;;7362493;19;20454;-82
2022/12/09 05:10:13;;;;;;;40.15;24.35;;;;;;;;;;7362102;19;19998;-81
2022/12/09 05:12:39;;;;;;;39.55;24.92;;;;;;;;;;7353781;19;20475;-81
2022/12/09 05:15:04;;;;;;;41.00;25.20;;;;;;;;;;7355833;19;20631;-81
2022/12/09 05:17:29;;;;;;;44.33;26.05;;;;;;;;;;7358024;19;20014;-83
2022/12/09 05:19:54;;;;;;;37.75;24.10;;;;;;;;;;7365958;19;20416;-82
2022/12/09 05:22:20;;;;;;;42.22;25.35;;;;;;;;;;7371392;19;20021;-80
2022/12/09 05:24:46;;;;;;;39.40;25.35;;;;;;;;;;7364133;19;20537;-81
2022/12/09 05:27:11;;;;;;;41.28;25.75;;;;;;;;;;7362602;19;20038;-82
2022/12/09 05:29:36;;;;;;;40.13;25.25;;;;;;;;;;7365255;19;20009;-83
2022/12/09 05:32:01;;;;;;;43.88;25.35;;;;;;;;;;7360902;19;20019;-80
2022/12/09 05:34:27;;;;;;;44.15;26.77;;;;;;;;;;7359674;19;20521;-81
2022/12/09 05:36:52;;;;;;;42.50;25.33;;;;;;;;;;7361091;19;20006;-81
2022/12/09 05:39:17;;;;;;;48.70;26.90;;;;;;;;;;7367346;19;20009;-79
2022/12/09 05:41:42;;;;;;;46.03;26.95;;;;;;;;;;7348458;19;20059;-80
2022/12/09 05:44:11;;;;;;;42.22;25.98;;;;;;;;;;7363038;19;19990;-81
2022/12/09 05:46:36;;;;;;;43.20;26.55;;;;;;;;;;7364485;19;20010;-82
2022/12/09 05:49:01;;;;;;;44.67;27.30;;;;;;;;;;7363696;19;19994;-81
2022/12/09 05:51:27;;;;;;;41.42;26.55;;;;;;;;;;7357090;19;20106;-79
2022/12/09 05:53:53;;;;;;;42.53;27.00;;;;;;;;;;7367246;19;19998;-79
2022/12/09 05:56:19;;;;;;;46.35;25.73;;;;;;;;;;7358669;19;20550;-80
2022/12/09 05:58:44;;;;;;;42.80;26.15;;;;;;;;;;7363170;19;19998;-82
2022/12/09 06:01:10;;;;;;;42.95;25.25;;;;;;;;;;7363015;19;20091;-81
2022/12/09 06:03:35;;;;;;;42.55;25.73;;;;;;;;;;7369305;19;21017;-80
2022/12/09 06:06:08;;;;;;;41.28;26.02;;;;;;;;;;7365831;19;20760;-82
2022/12/09 06:08:33;;;;;;;48.33;26.88;;;;;;;;;;7370863;19;20002;-81
2022/12/09 06:10:58;;;;;;;45.45;26.90;;;;;;;;;;7362986;19;20118;-81
2022/12/09 06:13:23;;;;;;;47.55;28.83;;;;;;;;;;7364043;19;20107;-79
2022/12/09 06:15:48;;;;;;;42.95;27.35;;;;;;;;;;7362534;19;20464;-79
2022/12/09 06:18:13;;;;;;;49.50;28.15;;;;;;;;;;7367557;19;19999;-79
2022/12/09 06:20:40;;;;;;;47.00;26.98;;;;;;;;;;7355266;19;20617;-82
2022/12/09 06:23:05;;;;;;;42.17;26.27;;;;;;;;;;7361547;19;20499;-80
2022/12/09 06:25:30;;;;;;;46.50;25.27;;;;;;;;;;7362233;19;20011;-80
2022/12/09 06:27:55;;;;;;;44.38;26.50;;;;;;;;;;7356698;19;20495;-81
2022/12/09 06:30:20;;;;;;;46.08;26.30;;;;;;;;;;7328815;19;20031;-80
2022/12/09 06:32:46;;;;;;;57.45;32.22;;;;;;;;;;7358550;19;20022;-79
2022/12/09 06:35:11;;;;;;;51.08;29.33;;;;;;;;;;7364032;19;20006;-79
2022/12/09 06:37:36;;;;;;;59.88;34.47;;;;;;;;;;7360250;19;20006;-79
2022/12/09 06:40:01;;;;;;;57.33;32.33;;;;;;;;;;7351341;19;20239;-78
2022/12/09 06:42:27;;;;;;;55.85;32.05;;;;;;;;;;7351709;19;20653;-79
2022/12/09 06:44:52;;;;;;;55.83;32.15;;;;;;;;;;7347347;19;19998;-79
2022/12/09 06:47:17;;;;;;;57.10;30.17;;;;;;;;;;7358526;19;20013;-78
2022/12/09 06:49:42;;;;;;;59.47;32.42;;;;;;;;;;7358140;19;20061;-79
2022/12/09 06:52:07;;;;;;;66.28;34.10;;;;;;;;;;7355006;19;20101;-79
2022/12/09 06:54:33;;;;;;;66.93;37.38;;;;;;;;;;7357147;19;20336;-78
2022/12/09 06:56:59;;;;;;;71.47;36.53;;;;;;;;;;7351738;19;20014;-79
2022/12/09 06:59:24;;;;;;;65.57;34.78;;;;;;;;;;7352048;19;20011;-80
2022/12/09 07:01:49;;;;;;;59.63;34.20;;;;;;;;;;7358820;19;20039;-80
2022/12/09 07:04:14;;;;;;;53.55;31.63;;;;;;;;;;7362703;19;20022;-78
2022/12/09 07:06:41;;;;;;;55.58;32.38;;;;;;;;;;7362461;19;20047;-80
2022/12/09 07:09:10;;;;;;;57.33;32.33;;;;;;;;;;7364547;19;20019;-80
2022/12/09 07:11:35;;;;;;;49.60;29.73;;;;;;;;;;7361137;19;20031;-80
2022/12/09 07:14:01;;;;;;;59.35;32.65;;;;;;;;;;7348996;19;20018;-78
2022/12/09 07:16:26;;;;;;;62.58;32.67;;;;;;;;;;7351672;19;20245;-78
2022/12/09 07:18:52;;;;;;;59.63;32.60;;;;;;;;;;7359197;19;20003;-78
2022/12/09 07:21:18;;;;;;;62.25;33.00;;;;;;;;;;7357264;19;20568;-79
2022/12/09 07:23:43;;;;;;;61.55;34.33;;;;;;;;;;7348256;19;20003;-79
2022/12/09 07:26:09;;;;;;;62.40;33.40;;;;;;;;;;7350879;19;20019;-80
2022/12/09 07:28:35;;;;;;;60.60;33.00;;;;;;;;;;7362330;19;20007;-80
2022/12/09 07:31:00;;;;;;;63.92;34.70;;;;;;;;;;7353975;19;20010;-81
2022/12/09 07:33:26;;;;;;;61.30;33.20;;;;;;;;;;7360315;19;20069;-80
2022/12/09 07:35:55;;;;;;;63.10;35.17;;;;;;;;;;7361007;19;20475;-80
2022/12/09 07:38:20;;;;;;;63.05;35.53;;;;;;;;;;7357409;19;20762;-78
2022/12/09 07:40:45;;;;;;;61.20;34.00;;;;;;;;;;7362502;19;20018;-79
2022/12/09 07:43:11;;;;;;;59.55;32.90;;;;;;;;;;7364741;19;20011;-79
2022/12/09 07:45:36;;;;;;;56.03;31.98;;;;;;;;;;7363916;19;20011;-79
2022/12/09 07:48:03;;;;;;;58.38;33.10;;;;;;;;;;7362240;19;20005;-79
2022/12/09 07:50:28;;;;;;;59.30;33.55;;;;;;;;;;7365376;19;20376;-78
2022/12/09 07:52:53;;;;;;;56.88;31.17;;;;;;;;;;7358769;19;20031;-80
2022/12/09 07:55:18;;;;;;;56.90;31.55;;;;;;;;;;7365801;19;20471;-78
2022/12/09 07:57:43;;;;;;;53.72;31.08;;;;;;;;;;7360610;19;20013;-80
2022/12/09 08:00:09;;;;;;;56.38;31.45;;;;;;;;;;7357404;19;20002;-78
2022/12/09 08:02:34;;;;;;;61.08;33.75;;;;;;;;;;7364034;19;20458;-79
2022/12/09 08:05:00;;;;;;;59.78;31.40;;;;;;;;;;7365532;19;20015;-78
2022/12/09 08:07:25;;;;;;;54.72;31.50;;;;;;;;;;7359837;19;20126;-79
2022/12/09 08:09:53;;;;;;;54.05;31.48;;;;;;;;;;7365131;19;20087;-80
2022/12/09 08:12:18;;;;;;;59.67;32.17;;;;;;;;;;7361219;19;20233;-79
2022/12/09 08:14:43;;;;;;;53.90;31.40;;;;;;;;;;7364972;19;20150;-79
2022/12/09 08:17:08;;;;;;;56.88;31.30;;;;;;;;;;7362278;19;20010;-79
2022/12/09 08:19:33;;;;;;;50.67;28.05;;;;;;;;;;7369161;19;20009;-79
2022/12/09 08:21:59;;;;;;;57.25;29.92;;;;;;;;;;7363938;19;20034;-79
2022/12/09 08:24:24;;;;;;;54.58;28.73;;;;;;;;;;7365059;19;20019;-79
2022/12/09 08:26:49;;;;;;;55.78;30.48;;;;;;;;;;7357402;19;20492;-80
2022/12/09 08:29:14;;;;;;;56.42;28.40;;;;;;;;;;7362140;19;20010;-79
2022/12/09 08:31:41;;;;;;;49.83;28.13;;;;;;;;;;7366037;19;20019;-79
2022/12/09 08:34:06;;;;;;;55.33;30.02;;;;;;;;;;7363830;19;20014;-80
2022/12/09 08:36:32;;;;;;;54.55;29.88;;;;;;;;;;7362391;19;20017;-80
2022/12/09 08:38:58;;;;;;;51.97;27.70;;;;;;;;;;7360191;19;20029;-79
2022/12/09 08:41:33;;;;;;;54.83;28.75;;;;;;;;;;7362879;19;20333;-80
2022/12/09 08:44:09;;;;;;;58.45;29.15;;;;;;;;;;7357622;19;20013;-79
2022/12/09 08:46:35;;;;;;;55.42;27.35;;;;;;;;;;7365039;19;20018;-80
2022/12/09 08:49:01;;;;;;;53.38;27.65;;;;;;;;;;7365254;19;20462;-79
2022/12/09 08:51:28;;;;;;;55.33;28.48;;;;;;;;;;7366689;19;20015;-79
2022/12/09 08:53:53;;;;;;;54.03;28.02;;;;;;;;;;7364126;19;19999;-80
2022/12/09 08:56:18;;;;;;;48.10;26.13;;;;;;;;;;7364784;19;20017;-78
2022/12/09 08:58:43;;;;;;;53.67;27.40;;;;;;;;;;7369133;19;20006;-80
2022/12/09 09:01:16;;;;;;;51.30;27.52;;;;;;;;;;7367824;19;20035;-79
2022/12/09 09:03:41;;;;;;;47.17;24.90;;;;;;;;;;7375825;19;20277;-79
2022/12/09 09:06:06;;;;;;;48.55;25.73;;;;;;;;;;7358788;19;20432;-80
2022/12/09 09:08:32;;;;;;;51.35;26.17;;;;;;;;;;7371150;19;20005;-78
2022/12/09 09:10:58;;;;;;;54.35;27.15;;;;;;;;;;7370226;19;20094;-79
2022/12/09 09:13:23;;;;;;;51.42;27.05;;;;;;;;;;7371276;19;20010;-79
2022/12/09 09:15:48;;;;;;;52.15;27.55;;;;;;;;;;7365228;19;20010;-79
2022/12/09 09:18:13;;;;;;;47.55;26.50;;;;;;;;;;7369203;19;20598;-79
2022/12/09 09:20:43;;;;;;;49.35;26.00;;;;;;;;;;7373458;19;20035;-79
2022/12/09 09:23:08;;;;;;;49.60;27.90;;;;;;;;;;7366668;19;20002;-79
2022/12/09 09:25:33;;;;;;;52.55;27.75;;;;;;;;;;7371526;19;20010;-79
2022/12/09 09:27:59;;;;;;;50.83;28.50;;;;;;;;;;7361847;19;20028;-80
2022/12/09 09:30:24;;;;;;;53.85;28.55;;;;;;;;;;7362332;19;20034;-79
2022/12/09 09:32:49;;;;;;;50.63;28.45;;;;;;;;;;7372093;19;20014;-79
2022/12/09 09:35:14;;;;;;;49.33;26.58;;;;;;;;;;7371375;19;20046;-79
2022/12/09 09:37:39;;;;;;;51.70;27.80;;;;;;;;;;7371051;19;20333;-80
2022/12/09 09:40:05;;;;;;;51.40;27.73;;;;;;;;;;7363957;19;20113;-79
2022/12/09 09:42:34;;;;;;;50.75;27.40;;;;;;;;;;7367589;19;20760;-79
2022/12/09 09:45:01;;;;;;;52.63;27.23;;;;;;;;;;7366337;19;20369;-79
2022/12/09 09:47:30;;;;;;;49.38;25.80;;;;;;;;;;7371982;19;20045;-79
2022/12/09 09:49:55;;;;;;;50.20;26.73;;;;;;;;;;7369616;19;20507;-80
2022/12/09 09:52:22;;;;;;;47.00;26.25;;;;;;;;;;7372869;19;20021;-79
2022/12/09 09:54:47;;;;;;;46.42;26.10;;;;;;;;;;7369614;19;20014;-79
2022/12/09 09:57:15;;;;;;;46.45;26.38;;;;;;;;;;7363193;19;20010;-79
2022/12/09 09:59:40;;;;;;;51.80;28.25;;;;;;;;;;7361200;19;20335;-79
2022/12/09 10:02:11;;;;;;;44.33;26.50;;;;;;;;;;7362271;19;20010;-79
2022/12/09 10:04:54;;;;;;;51.50;27.15;;;;;;;;;;7365686;19;20085;-79
2022/12/09 10:07:27;;;;;;;43.80;24.33;;;;;;;;;;7364901;19;20010;-78
2022/12/09 10:10:00;;;;;;;32.40;18.73;;;;;;;;;;7347353;19;20010;-80
2022/12/09 10:12:35;;;;;;;34.88;20.15;;;;;;;;;;7364129;19;20107;-79
2022/12/09 10:15:01;;;;;;;36.85;19.70;;;;;;;;;;7364081;19;20022;-79
2022/12/09 10:17:27;;;;;;;46.90;25.42;;;;;;;;;;7368241;19;20017;-78
2022/12/09 10:20:12;;;;;;;47.55;25.70;;;;;;;;;;7373547;19;20101;-80
2022/12/09 10:22:43;;;;;;;42.85;26.23;;;;;;;;;;7369435;19;19995;-78
2022/12/09 10:25:44;;;;;;;35.13;19.98;;;;;;;;;;7358110;19;20010;-79
2022/12/09 10:28:21;;;;;;;53.53;30.27;;;;;;;;;;7360275;19;20024;-79
2022/12/09 10:30:51;;;;;;;38.47;19.30;;;;;;;;;;7360294;19;20026;-79
2022/12/09 10:33:19;;;;;;;33.20;17.67;;;;;;;;;;7363324;19;20634;-78
2022/12/09 10:35:45;;;;;;;31.15;17.25;;;;;;;;;;7367309;19;20034;-79
2022/12/09 10:38:12;;;;;;;28.85;16.15;;;;;;;;;;7364215;19;20010;-78
2022/12/09 10:40:46;;;;;;;27.88;14.93;;;;;;;;;;7365101;19;20015;-80
2022/12/09 10:43:42;;;;;;;22.02;13.25;;;;;;;;;;7365398;19;20305;-79
2022/12/09 10:46:17;;;;;;;29.80;17.10;;;;;;;;;;7363617;19;20126;-78
2022/12/09 10:48:42;;;;;;;39.92;21.48;;;;;;;;;;7366732;19;20394;-78
2022/12/09 10:51:10;;;;;;;40.97;21.40;;;;;;;;;;7366501;19;20511;-79
2022/12/09 10:53:36;;;;;;;40.15;22.20;;;;;;;;;;7369584;19;20655;-79
2022/12/09 10:56:02;;;;;;;46.45;22.13;;;;;;;;;;7365283;19;20006;-79
2022/12/09 10:58:28;;;;;;;39.72;21.90;;;;;;;;;;7366422;19;20462;-78
2022/12/09 11:01:05;;;;;;;39.97;20.80;;;;;;;;;;7360362;19;20003;-79
2022/12/09 11:03:33;;;;;;;37.13;19.23;;;;;;;;;;7364801;19;20013;-79
2022/12/09 11:06:01;;;;;;;37.17;19.95;;;;;;;;;;7367980;19;20022;-80
2022/12/09 11:08:26;;;;;;;34.90;19.17;;;;;;;;;;7359738;19;20011;-79
2022/12/09 11:10:52;;;;;;;35.78;20.17;;;;;;;;;;7368049;19;20035;-78
2022/12/09 11:13:18;;;;;;;41.38;21.20;;;;;;;;;;7362807;19;20010;-79
2022/12/09 11:15:44;;;;;;;33.33;18.35;;;;;;;;;;7355463;19;20010;-79
2022/12/09 11:18:17;;;;;;;33.53;17.85;;;;;;;;;;7367325;19;20041;-79
2022/12/09 11:20:52;;;;;;;37.95;20.33;;;;;;;;;;7368994;19;20007;-78
2022/12/09 11:23:17;;;;;;;38.58;21.58;;;;;;;;;;7336498;19;20014;-78
2022/12/09 11:25:52;;;;;;;41.10;21.92;;;;;;;;;;7360925;19;20043;-79
2022/12/09 11:28:17;;;;;;;40.80;22.38;;;;;;;;;;7363216;19;20025;-78
2022/12/09 11:30:51;;;;;;;38.67;21.27;;;;;;;;;;7363532;19;20018;-78
2022/12/09 11:33:29;;;;;;;40.25;22.45;;;;;;;;;;7366367;19;20235;-79
2022/12/09 11:36:08;;;;;;;40.92;23.05;;;;;;;;;;7367543;19;20010;-80
2022/12/09 11:38:35;;;;;;;43.47;22.92;;;;;;;;;;7366376;19;20045;-78
2022/12/09 11:41:10;;;;;;;39.00;20.63;;;;;;;;;;7358645;19;20023;-80
2022/12/09 11:43:52;;;;;;;33.35;19.75;;;;;;;;;;7367418;19;20022;-79
2022/12/09 11:46:26;;;;;;;34.22;19.65;;;;;;;;;;7361913;19;20013;-80
2022/12/09 11:48:54;;;;;;;33.70;18.85;;;;;;;;;;7335445;19;20006;-79
2022/12/09 11:51:25;;;;;;;30.05;16.30;;;;;;;;;;7358364;19;20288;-79
2022/12/09 11:53:51;;;;;;;31.23;17.23;;;;;;;;;;7371501;19;20452;-78
2022/12/09 11:56:21;;;;;;;31.98;16.42;;;;;;;;;;7347311;19;20018;-80
2022/12/09 11:58:50;;;;;;;33.53;17.13;;;;;;;;;;7338913;19;20328;-80
2022/12/09 12:01:19;;;;;;;26.13;15.18;;;;;;;;;;7345917;19;20642;-79
2022/12/09 12:03:51;;;;;;;29.25;15.75;;;;;;;;;;7354285;19;20006;-79
2022/12/09 12:06:24;;;;;;;26.95;15.07;;;;;;;;;;7355120;19;20014;-81
2022/12/09 12:08:52;;;;;;;23.95;13.82;;;;;;;;;;7366519;19;20045;-80
2022/12/09 12:11:18;;;;;;;21.73;11.55;;;;;;;;;;7346939;19;20038;-80
2022/12/09 12:13:44;;;;;;;22.48;12.93;;;;;;;;;;7351053;19;20034;-80
2022/12/09 12:16:11;;;;;;;20.20;10.18;;;;;;;;;;7357268;19;20021;-80
2022/12/09 12:18:50;;;;;;;18.58;9.00;;;;;;;;;;7358062;19;20003;-78
2022/12/09 12:21:20;;;;;;;15.77;8.63;;;;;;;;;;7360824;19;20452;-80
2022/12/09 12:23:45;;;;;;;15.18;7.65;;;;;;;;;;7360742;19;20016;-80
2022/12/09 12:26:10;;;;;;;13.55;6.72;;;;;;;;;;7361040;19;20019;-79
2022/12/09 12:28:54;;;;;;;17.67;7.57;;;;;;;;;;7351982;19;21095;-78
2022/12/09 12:31:22;;;;;;;9.63;4.55;;;;;;;;;;7347579;19;20678;-79
2022/12/09 12:34:11;;;;;;;9.98;4.35;;;;;;;;;;7355826;19;20559;-79
2022/12/09 12:36:39;;;;;;;10.80;4.30;;;;;;;;;;7360499;19;20011;-79
2022/12/09 12:39:13;;;;;;;10.70;4.63;;;;;;;;;;7366786;19;20014;-79
2022/12/09 12:41:51;;;;;;;6.60;2.80;;;;;;;;;;7353183;19;20017;-80
2022/12/09 12:47:34;;;;;;;6.72;3.03;;;;;;;;;;7356576;19;20009;-80
2022/12/09 12:49:59;;;;;;;;;;;;;;;;;;7348569;19;20091;-78
2022/12/09 12:52:24;;;;;;;10.65;4.30;;;;;;;;;;7336670;19;19947;-80
2022/12/09 12:54:57;;;;;;;8.68;3.58;;;;;;;;;;7361535;19;20018;-80
2022/12/09 12:57:35;;;;;;;10.70;4.10;;;;;;;;;;7348672;19;20287;-80
2022/12/09 13:00:06;;;;;;;8.18;3.75;;;;;;;;;;7348490;19;20478;-80
2022/12/09 13:02:42;;;;;;;9.60;4.45;;;;;;;;;;7347325;19;19999;-81
2022/12/09 13:05:13;;;;;;;11.52;5.70;;;;;;;;;;7345000;19;20032;-81
2022/12/09 13:07:42;;;;;;;12.90;5.28;;;;;;;;;;7361041;19;20006;-80
2022/12/09 13:10:16;;;;;;;11.52;5.53;;;;;;;;;;7362266;19;20082;-80
2022/12/09 13:12:55;;;;;;;13.63;6.10;;;;;;;;;;7362348;19;20011;-79
2022/12/09 13:15:32;;;;;;;13.65;6.40;;;;;;;;;;7350910;19;20044;-79
2022/12/09 13:18:12;;;;;;;12.90;5.85;;;;;;;;;;7358096;19;20352;-80
2022/12/09 13:20:37;;;;;;;10.55;5.38;;;;;;;;;;7359515;19;20397;-80
2022/12/09 13:23:13;;;;;;;10.73;5.85;;;;;;;;;;7354870;19;20002;-80
2022/12/09 13:25:48;;;;;;;15.35;6.75;;;;;;;;;;7358070;19;19998;-80
2022/12/09 13:28:23;;;;;;;12.68;5.82;;;;;;;;;;7352666;19;20011;-81
2022/12/09 13:30:59;;;;;;;14.52;7.07;;;;;;;;;;7355257;19;20010;-79
2022/12/09 13:33:30;;;;;;;13.60;7.30;;;;;;;;;;7351492;19;20010;-79
2022/12/09 13:36:02;;;;;;;13.00;6.78;;;;;;;;;;7357595;19;20011;-80
2022/12/09 13:38:39;;;;;;;12.88;6.50;;;;;;;;;;7356492;19;20020;-80
2022/12/09 13:44:28;;;;;;;12.43;6.45;;;;;;;;;;7350395;19;20356;-80
2022/12/09 13:47:11;;;;;;;12.35;6.72;;;;;;;;;;7368089;19;20051;-79
2022/12/09 13:49:37;;;;;;;14.38;6.60;;;;;;;;;;7350435;19;20634;-79
2022/12/09 13:52:03;;;;;;;13.02;7.10;;;;;;;;;;7369839;19;20061;-80
2022/12/09 13:54:28;;;;;;;16.17;7.35;;;;;;;;;;7368063;19;20044;-80
2022/12/09 13:57:05;;;;;;;14.95;7.80;;;;;;;;;;7356505;19;19999;-80
2022/12/09 13:59:30;;;;;;;13.73;7.00;;;;;;;;;;7353957;19;20018;-79
2022/12/09 14:02:01;;;;;;;15.00;7.28;;;;;;;;;;7352916;19;20041;-80
2022/12/09 14:04:28;;;;;;;11.57;7.10;;;;;;;;;;7364185;19;20086;-81
2022/12/09 14:07:08;;;;;;;13.90;7.55;;;;;;;;;;7367865;19;20053;-80
2022/12/09 14:09:53;;;;;;;13.65;8.02;;;;;;;;;;7364594;19;20122;-79
2022/12/09 14:12:24;;;;;;;16.75;8.18;;;;;;;;;;7364249;19;20623;-79
2022/12/09 14:15:10;;;;;;;15.52;8.75;;;;;;;;;;7324842;19;20579;-79
2022/12/09 14:17:35;;;;;;;17.98;9.88;;;;;;;;;;7352360;19;20017;-80
2022/12/09 14:20:16;;;;;;;15.05;8.48;;;;;;;;;;7369504;19;20014;-79
2022/12/09 14:23:00;;;;;;;14.18;8.45;;;;;;;;;;7363253;19;20239;-80
2022/12/09 14:25:27;;;;;;;14.85;8.95;;;;;;;;;;7359817;19;20015;-79
2022/12/09 14:28:10;;;;;;;18.92;8.52;;;;;;;;;;7359754;19;20018;-79
2022/12/09 14:30:44;;;;;;;16.23;9.07;;;;;;;;;;7360093;19;20348;-79